sensor_id;sensor_type;location;lat;lon;timestamp;P1;durP1;ratioP1;P2;durP2;ratioP2
37851;SDS011;23691;52.486;4.650;2022-11-04T00:01:51;10.20;;;1.60;;
37851;SDS011;23691;52.486;4.650;2022-11-04T00:04:18;8.10;;;1.13;;
37851;SDS011;23691;52.486;4.650;2022-11-04T00:06:46;10.05;;;1.25;;
37851;SDS011;23691;52.486;4.650;2022-11-04T00:09:14;13.63;;;1.38;;
37851;SDS011;23691;52.486;4.650;2022-11-04T00:11:42;18.45;;;1.35;;
37851;SDS011;23691;52.486;4.650;2022-11-04T00:14:27;9.07;;;1.20;;
37851;SDS011;23691;52.486;4.650;2022-11-04T00:16:54;11.00;;;1.33;;
37851;SDS011;23691;52.486;4.650;2022-11-04T00:19:38;9.52;;;1.17;;
37851;SDS011;23691;52.486;4.650;2022-11-04T00:22:22;7.78;;;1.10;;
37851;SDS011;23691;52.486;4.650;2022-11-04T00:25:07;11.25;;;1.65;;
37851;SDS011;23691;52.486;4.650;2022-11-04T00:27:51;10.10;;;1.42;;
37851;SDS011;23691;52.486;4.650;2022-11-04T00:30:35;12.98;;;1.80;;
37851;SDS011;23691;52.486;4.650;2022-11-04T00:33:00;12.63;;;1.90;;
37851;SDS011;23691;52.486;4.650;2022-11-04T00:35:48;12.93;;;1.92;;
37851;SDS011;23691;52.486;4.650;2022-11-04T00:38:14;7.85;;;1.42;;
37851;SDS011;23691;52.486;4.650;2022-11-04T00:40:40;7.47;;;1.20;;
37851;SDS011;23691;52.486;4.650;2022-11-04T00:43:05;9.43;;;1.38;;
37851;SDS011;23691;52.486;4.650;2022-11-04T00:45:31;13.15;;;1.20;;
37851;SDS011;23691;52.486;4.650;2022-11-04T00:47:56;8.90;;;1.30;;
37851;SDS011;23691;52.486;4.650;2022-11-04T00:50:21;7.65;;;1.27;;
37851;SDS011;23691;52.486;4.650;2022-11-04T00:52:47;10.30;;;1.45;;
37851;SDS011;23691;52.486;4.650;2022-11-04T00:55:12;12.43;;;1.30;;
37851;SDS011;23691;52.486;4.650;2022-11-04T00:57:38;8.65;;;1.30;;
37851;SDS011;23691;52.486;4.650;2022-11-04T01:00:03;9.95;;;1.23;;
37851;SDS011;23691;52.486;4.650;2022-11-04T01:02:29;8.65;;;1.30;;
37851;SDS011;23691;52.486;4.650;2022-11-04T01:04:55;10.27;;;1.40;;
37851;SDS011;23691;52.486;4.650;2022-11-04T01:07:20;11.73;;;1.55;;
37851;SDS011;23691;52.486;4.650;2022-11-04T01:09:47;9.88;;;1.30;;
37851;SDS011;23691;52.486;4.650;2022-11-04T01:12:13;9.93;;;1.30;;
37851;SDS011;23691;52.486;4.650;2022-11-04T01:14:38;9.82;;;1.45;;
37851;SDS011;23691;52.486;4.650;2022-11-04T01:17:06;8.77;;;1.27;;
37851;SDS011;23691;52.486;4.650;2022-11-04T01:19:31;6.68;;;1.20;;
37851;SDS011;23691;52.486;4.650;2022-11-04T01:21:57;12.68;;;1.40;;
37851;SDS011;23691;52.486;4.650;2022-11-04T01:24:22;7.80;;;1.15;;
37851;SDS011;23691;52.486;4.650;2022-11-04T01:26:48;8.15;;;1.38;;
37851;SDS011;23691;52.486;4.650;2022-11-04T01:29:13;10.00;;;1.63;;
37851;SDS011;23691;52.486;4.650;2022-11-04T01:31:39;14.85;;;1.92;;
37851;SDS011;23691;52.486;4.650;2022-11-04T01:34:04;7.93;;;1.45;;
37851;SDS011;23691;52.486;4.650;2022-11-04T01:36:30;9.55;;;2.03;;
37851;SDS011;23691;52.486;4.650;2022-11-04T01:38:55;12.15;;;1.70;;
37851;SDS011;23691;52.486;4.650;2022-11-04T01:46:24;12.02;;;2.20;;
37851;SDS011;23691;52.486;4.650;2022-11-04T01:48:50;10.80;;;1.92;;
37851;SDS011;23691;52.486;4.650;2022-11-04T01:51:17;9.05;;;1.55;;
37851;SDS011;23691;52.486;4.650;2022-11-04T01:53:44;9.35;;;1.63;;
37851;SDS011;23691;52.486;4.650;2022-11-04T01:56:10;10.50;;;1.50;;
37851;SDS011;23691;52.486;4.650;2022-11-04T01:58:38;7.78;;;1.48;;
37851;SDS011;23691;52.486;4.650;2022-11-04T02:01:08;5.05;;;1.10;;
37851;SDS011;23691;52.486;4.650;2022-11-04T02:06:20;7.10;;;1.20;;
37851;SDS011;23691;52.486;4.650;2022-11-04T02:08:47;4.57;;;0.80;;
37851;SDS011;23691;52.486;4.650;2022-11-04T02:11:13;4.68;;;1.00;;
37851;SDS011;23691;52.486;4.650;2022-11-04T02:13:59;4.68;;;0.80;;
37851;SDS011;23691;52.486;4.650;2022-11-04T02:16:36;3.55;;;0.73;;
37851;SDS011;23691;52.486;4.650;2022-11-04T02:27:34;6.95;;;0.80;;
37851;SDS011;23691;52.486;4.650;2022-11-04T02:30:15;7.32;;;1.27;;
37851;SDS011;23691;52.486;4.650;2022-11-04T02:38:21;5.53;;;0.82;;
37851;SDS011;23691;52.486;4.650;2022-11-04T02:43:59;5.65;;;0.93;;
37851;SDS011;23691;52.486;4.650;2022-11-04T02:47:02;6.30;;;0.80;;
37851;SDS011;23691;52.486;4.650;2022-11-04T02:49:37;4.75;;;0.90;;
37851;SDS011;23691;52.486;4.650;2022-11-04T02:52:07;5.10;;;0.98;;
37851;SDS011;23691;52.486;4.650;2022-11-04T02:54:42;6.35;;;0.93;;
37851;SDS011;23691;52.486;4.650;2022-11-04T02:57:13;7.78;;;1.00;;
37851;SDS011;23691;52.486;4.650;2022-11-04T02:59:47;7.30;;;1.00;;
37851;SDS011;23691;52.486;4.650;2022-11-04T03:02:27;7.93;;;1.27;;
37851;SDS011;23691;52.486;4.650;2022-11-04T03:04:59;7.47;;;1.20;;
37851;SDS011;23691;52.486;4.650;2022-11-04T03:07:29;8.63;;;1.40;;
37851;SDS011;23691;52.486;4.650;2022-11-04T03:10:00;9.48;;;1.10;;
37851;SDS011;23691;52.486;4.650;2022-11-04T03:12:32;8.77;;;1.65;;
37851;SDS011;23691;52.486;4.650;2022-11-04T03:15:07;10.20;;;1.17;;
37851;SDS011;23691;52.486;4.650;2022-11-04T03:17:54;10.00;;;1.30;;
37851;SDS011;23691;52.486;4.650;2022-11-04T03:20:35;11.75;;;1.60;;
37851;SDS011;23691;52.486;4.650;2022-11-04T03:23:03;8.60;;;1.27;;
37851;SDS011;23691;52.486;4.650;2022-11-04T03:25:35;8.27;;;1.25;;
37851;SDS011;23691;52.486;4.650;2022-11-04T03:30:58;10.85;;;1.20;;
37851;SDS011;23691;52.486;4.650;2022-11-04T03:36:14;11.82;;;1.10;;
37851;SDS011;23691;52.486;4.650;2022-11-04T03:38:40;9.60;;;1.10;;
37851;SDS011;23691;52.486;4.650;2022-11-04T03:41:07;9.93;;;1.35;;
37851;SDS011;23691;52.486;4.650;2022-11-04T03:43:39;7.10;;;1.05;;
37851;SDS011;23691;52.486;4.650;2022-11-04T03:46:05;8.95;;;1.10;;
37851;SDS011;23691;52.486;4.650;2022-11-04T03:48:32;9.30;;;1.45;;
37851;SDS011;23691;52.486;4.650;2022-11-04T03:50:57;10.98;;;1.63;;
37851;SDS011;23691;52.486;4.650;2022-11-04T03:53:23;12.75;;;1.30;;
37851;SDS011;23691;52.486;4.650;2022-11-04T04:04:04;10.68;;;1.23;;
37851;SDS011;23691;52.486;4.650;2022-11-04T04:06:38;7.07;;;1.20;;
37851;SDS011;23691;52.486;4.650;2022-11-04T04:11:43;7.82;;;1.00;;
37851;SDS011;23691;52.486;4.650;2022-11-04T04:19:57;10.30;;;1.25;;
37851;SDS011;23691;52.486;4.650;2022-11-04T04:22:27;9.30;;;1.25;;
37851;SDS011;23691;52.486;4.650;2022-11-04T04:24:58;11.80;;;1.52;;
37851;SDS011;23691;52.486;4.650;2022-11-04T04:27:46;11.38;;;1.40;;
37851;SDS011;23691;52.486;4.650;2022-11-04T04:30:16;10.57;;;1.92;;
37851;SDS011;23691;52.486;4.650;2022-11-04T04:35:15;13.07;;;1.65;;
37851;SDS011;23691;52.486;4.650;2022-11-04T04:38:01;9.25;;;1.30;;
37851;SDS011;23691;52.486;4.650;2022-11-04T04:41:03;11.30;;;1.70;;
37851;SDS011;23691;52.486;4.650;2022-11-04T04:43:53;11.95;;;1.42;;
37851;SDS011;23691;52.486;4.650;2022-11-04T04:46:37;8.50;;;1.52;;
37851;SDS011;23691;52.486;4.650;2022-11-04T04:49:06;8.52;;;1.40;;
37851;SDS011;23691;52.486;4.650;2022-11-04T04:51:33;8.98;;;1.30;;
37851;SDS011;23691;52.486;4.650;2022-11-04T04:54:07;9.82;;;1.58;;
37851;SDS011;23691;52.486;4.650;2022-11-04T04:56:32;10.02;;;1.30;;
37851;SDS011;23691;52.486;4.650;2022-11-04T04:58:58;9.13;;;1.27;;
37851;SDS011;23691;52.486;4.650;2022-11-04T05:01:23;6.03;;;1.00;;
37851;SDS011;23691;52.486;4.650;2022-11-04T05:03:48;6.70;;;1.30;;
37851;SDS011;23691;52.486;4.650;2022-11-04T05:06:14;5.70;;;1.10;;
37851;SDS011;23691;52.486;4.650;2022-11-04T05:08:39;7.78;;;1.10;;
37851;SDS011;23691;52.486;4.650;2022-11-04T05:11:05;5.47;;;1.00;;
37851;SDS011;23691;52.486;4.650;2022-11-04T05:13:30;9.27;;;1.23;;
37851;SDS011;23691;52.486;4.650;2022-11-04T05:15:56;6.63;;;1.00;;
37851;SDS011;23691;52.486;4.650;2022-11-04T05:18:26;5.22;;;1.00;;
37851;SDS011;23691;52.486;4.650;2022-11-04T05:20:52;5.03;;;1.08;;
37851;SDS011;23691;52.486;4.650;2022-11-04T05:23:17;5.18;;;1.15;;
37851;SDS011;23691;52.486;4.650;2022-11-04T05:25:43;5.97;;;1.13;;
37851;SDS011;23691;52.486;4.650;2022-11-04T05:28:08;6.28;;;1.17;;
37851;SDS011;23691;52.486;4.650;2022-11-04T05:30:34;5.57;;;1.20;;
37851;SDS011;23691;52.486;4.650;2022-11-04T05:33:00;8.45;;;1.00;;
37851;SDS011;23691;52.486;4.650;2022-11-04T05:35:25;7.38;;;1.30;;
37851;SDS011;23691;52.486;4.650;2022-11-04T05:37:51;8.60;;;1.30;;
37851;SDS011;23691;52.486;4.650;2022-11-04T05:40:16;6.22;;;1.30;;
37851;SDS011;23691;52.486;4.650;2022-11-04T05:42:42;5.53;;;1.25;;
37851;SDS011;23691;52.486;4.650;2022-11-04T05:45:07;7.57;;;1.35;;
37851;SDS011;23691;52.486;4.650;2022-11-04T05:47:33;8.02;;;1.30;;
37851;SDS011;23691;52.486;4.650;2022-11-04T05:49:58;7.45;;;1.40;;
37851;SDS011;23691;52.486;4.650;2022-11-04T05:52:24;8.55;;;1.30;;
37851;SDS011;23691;52.486;4.650;2022-11-04T05:54:49;5.55;;;1.50;;
37851;SDS011;23691;52.486;4.650;2022-11-04T05:57:14;7.28;;;1.80;;
37851;SDS011;23691;52.486;4.650;2022-11-04T05:59:40;7.25;;;1.75;;
37851;SDS011;23691;52.486;4.650;2022-11-04T06:02:05;6.85;;;1.70;;
37851;SDS011;23691;52.486;4.650;2022-11-04T06:04:31;7.60;;;1.70;;
37851;SDS011;23691;52.486;4.650;2022-11-04T06:06:57;7.05;;;1.65;;
37851;SDS011;23691;52.486;4.650;2022-11-04T06:09:22;8.75;;;1.70;;
37851;SDS011;23691;52.486;4.650;2022-11-04T06:12:04;10.25;;;1.90;;
37851;SDS011;23691;52.486;4.650;2022-11-04T06:14:39;8.25;;;2.40;;
37851;SDS011;23691;52.486;4.650;2022-11-04T06:17:05;8.63;;;2.08;;
37851;SDS011;23691;52.486;4.650;2022-11-04T06:19:30;8.38;;;2.00;;
37851;SDS011;23691;52.486;4.650;2022-11-04T06:21:56;9.73;;;2.28;;
37851;SDS011;23691;52.486;4.650;2022-11-04T06:24:21;7.90;;;2.30;;
37851;SDS011;23691;52.486;4.650;2022-11-04T06:26:46;10.68;;;2.72;;
37851;SDS011;23691;52.486;4.650;2022-11-04T06:29:12;8.15;;;2.30;;
37851;SDS011;23691;52.486;4.650;2022-11-04T06:31:37;6.65;;;1.90;;
37851;SDS011;23691;52.486;4.650;2022-11-04T06:34:03;9.05;;;2.10;;
37851;SDS011;23691;52.486;4.650;2022-11-04T06:36:28;9.15;;;2.30;;
37851;SDS011;23691;52.486;4.650;2022-11-04T06:38:54;8.38;;;2.10;;
37851;SDS011;23691;52.486;4.650;2022-11-04T06:41:19;7.85;;;2.00;;
37851;SDS011;23691;52.486;4.650;2022-11-04T06:43:44;8.65;;;2.03;;
37851;SDS011;23691;52.486;4.650;2022-11-04T06:49:11;7.78;;;2.00;;
37851;SDS011;23691;52.486;4.650;2022-11-04T06:51:38;8.68;;;2.38;;
37851;SDS011;23691;52.486;4.650;2022-11-04T06:54:04;10.45;;;2.20;;
37851;SDS011;23691;52.486;4.650;2022-11-04T06:56:29;8.95;;;2.08;;
37851;SDS011;23691;52.486;4.650;2022-11-04T06:58:55;10.50;;;2.20;;
37851;SDS011;23691;52.486;4.650;2022-11-04T07:01:22;9.27;;;2.10;;
37851;SDS011;23691;52.486;4.650;2022-11-04T07:03:50;10.27;;;2.13;;
37851;SDS011;23691;52.486;4.650;2022-11-04T07:06:17;8.38;;;2.20;;
37851;SDS011;23691;52.486;4.650;2022-11-04T07:08:43;8.63;;;2.50;;
37851;SDS011;23691;52.486;4.650;2022-11-04T07:11:09;7.10;;;2.20;;
37851;SDS011;23691;52.486;4.650;2022-11-04T07:13:35;14.65;;;5.53;;
37851;SDS011;23691;52.486;4.650;2022-11-04T07:16:02;17.70;;;6.72;;
37851;SDS011;23691;52.486;4.650;2022-11-04T07:18:29;14.20;;;3.80;;
37851;SDS011;23691;52.486;4.650;2022-11-04T07:20:55;10.52;;;3.90;;
37851;SDS011;23691;52.486;4.650;2022-11-04T07:23:21;15.00;;;6.65;;
37851;SDS011;23691;52.486;4.650;2022-11-04T07:25:46;28.60;;;13.25;;
37851;SDS011;23691;52.486;4.650;2022-11-04T07:28:12;17.17;;;7.07;;
37851;SDS011;23691;52.486;4.650;2022-11-04T07:30:37;13.13;;;5.50;;
37851;SDS011;23691;52.486;4.650;2022-11-04T07:35:31;73.28;;;24.60;;
37851;SDS011;23691;52.486;4.650;2022-11-04T07:37:56;110.93;;;40.50;;
37851;SDS011;23691;52.486;4.650;2022-11-04T07:40:22;131.52;;;50.80;;
37851;SDS011;23691;52.486;4.650;2022-11-04T07:42:47;82.32;;;31.48;;
37851;SDS011;23691;52.486;4.650;2022-11-04T07:45:12;316.50;;;98.30;;
37851;SDS011;23691;52.486;4.650;2022-11-04T07:47:38;341.45;;;103.72;;
37851;SDS011;23691;52.486;4.650;2022-11-04T07:50:03;202.07;;;63.03;;
37851;SDS011;23691;52.486;4.650;2022-11-04T07:52:29;94.68;;;30.60;;
37851;SDS011;23691;52.486;4.650;2022-11-04T07:54:54;62.85;;;20.85;;
37851;SDS011;23691;52.486;4.650;2022-11-04T07:57:20;80.10;;;26.77;;
37851;SDS011;23691;52.486;4.650;2022-11-04T07:59:45;80.93;;;29.55;;
37851;SDS011;23691;52.486;4.650;2022-11-04T08:02:11;51.67;;;21.48;;
37851;SDS011;23691;52.486;4.650;2022-11-04T08:04:36;37.75;;;14.95;;
37851;SDS011;23691;52.486;4.650;2022-11-04T08:07:02;23.55;;;9.48;;
37851;SDS011;23691;52.486;4.650;2022-11-04T08:09:27;17.55;;;6.15;;
37851;SDS011;23691;52.486;4.650;2022-11-04T08:11:53;13.95;;;5.00;;
37851;SDS011;23691;52.486;4.650;2022-11-04T08:14:18;15.75;;;5.40;;
37851;SDS011;23691;52.486;4.650;2022-11-04T08:16:43;12.13;;;4.07;;
37851;SDS011;23691;52.486;4.650;2022-11-04T08:19:10;10.30;;;2.95;;
37851;SDS011;23691;52.486;4.650;2022-11-04T08:21:35;16.90;;;4.85;;
37851;SDS011;23691;52.486;4.650;2022-11-04T08:24:00;13.82;;;6.38;;
37851;SDS011;23691;52.486;4.650;2022-11-04T08:26:30;23.52;;;13.23;;
37851;SDS011;23691;52.486;4.650;2022-11-04T08:28:55;18.50;;;9.60;;
37851;SDS011;23691;52.486;4.650;2022-11-04T08:31:22;34.55;;;17.98;;
37851;SDS011;23691;52.486;4.650;2022-11-04T08:33:50;54.70;;;22.50;;
37851;SDS011;23691;52.486;4.650;2022-11-04T08:36:18;43.80;;;16.20;;
37851;SDS011;23691;52.486;4.650;2022-11-04T08:38:45;29.73;;;10.70;;
37851;SDS011;23691;52.486;4.650;2022-11-04T08:41:12;26.77;;;9.20;;
37851;SDS011;23691;52.486;4.650;2022-11-04T08:43:39;13.23;;;4.28;;
37851;SDS011;23691;52.486;4.650;2022-11-04T08:46:06;12.35;;;2.60;;
37851;SDS011;23691;52.486;4.650;2022-11-04T08:48:33;9.50;;;2.38;;
37851;SDS011;23691;52.486;4.650;2022-11-04T08:50:59;10.75;;;2.10;;
37851;SDS011;23691;52.486;4.650;2022-11-04T08:53:25;9.38;;;2.00;;
37851;SDS011;23691;52.486;4.650;2022-11-04T08:55:51;10.23;;;1.90;;
37851;SDS011;23691;52.486;4.650;2022-11-04T08:58:17;7.65;;;1.92;;
37851;SDS011;23691;52.486;4.650;2022-11-04T09:00:42;8.05;;;1.58;;
37851;SDS011;23691;52.486;4.650;2022-11-04T09:03:08;8.90;;;1.77;;
37851;SDS011;23691;52.486;4.650;2022-11-04T09:05:35;13.05;;;1.80;;
37851;SDS011;23691;52.486;4.650;2022-11-04T09:08:07;9.52;;;1.85;;
37851;SDS011;23691;52.486;4.650;2022-11-04T09:10:33;8.73;;;1.80;;
37851;SDS011;23691;52.486;4.650;2022-11-04T09:12:58;8.15;;;1.45;;
37851;SDS011;23691;52.486;4.650;2022-11-04T09:15:23;9.30;;;1.80;;
37851;SDS011;23691;52.486;4.650;2022-11-04T09:17:49;9.65;;;1.73;;
37851;SDS011;23691;52.486;4.650;2022-11-04T09:20:14;10.60;;;2.08;;
37851;SDS011;23691;52.486;4.650;2022-11-04T09:22:39;10.15;;;1.83;;
37851;SDS011;23691;52.486;4.650;2022-11-04T09:25:06;8.68;;;1.88;;
37851;SDS011;23691;52.486;4.650;2022-11-04T09:27:31;8.20;;;1.77;;
37851;SDS011;23691;52.486;4.650;2022-11-04T09:29:57;6.50;;;1.60;;
37851;SDS011;23691;52.486;4.650;2022-11-04T09:32:22;8.13;;;1.67;;
37851;SDS011;23691;52.486;4.650;2022-11-04T09:34:47;10.13;;;1.70;;
37851;SDS011;23691;52.486;4.650;2022-11-04T09:37:13;10.48;;;1.80;;
37851;SDS011;23691;52.486;4.650;2022-11-04T09:39:39;7.95;;;1.85;;
37851;SDS011;23691;52.486;4.650;2022-11-04T09:45:17;10.55;;;2.42;;
37851;SDS011;23691;52.486;4.650;2022-11-04T09:47:43;10.43;;;2.42;;
37851;SDS011;23691;52.486;4.650;2022-11-04T09:50:25;10.50;;;3.00;;
37851;SDS011;23691;52.486;4.650;2022-11-04T09:53:00;9.68;;;2.50;;
37851;SDS011;23691;52.486;4.650;2022-11-04T09:58:10;11.90;;;2.38;;
37851;SDS011;23691;52.486;4.650;2022-11-04T10:00:38;11.00;;;2.10;;
37851;SDS011;23691;52.486;4.650;2022-11-04T10:10:55;12.20;;;3.05;;
37851;SDS011;23691;52.486;4.650;2022-11-04T10:13:31;12.63;;;3.58;;
37851;SDS011;23691;52.486;4.650;2022-11-04T10:16:17;11.05;;;2.60;;
37851;SDS011;23691;52.486;4.650;2022-11-04T10:18:57;12.40;;;2.00;;
37851;SDS011;23691;52.486;4.650;2022-11-04T10:24:23;11.43;;;2.70;;
37851;SDS011;23691;52.486;4.650;2022-11-04T10:27:08;11.82;;;1.95;;
37851;SDS011;23691;52.486;4.650;2022-11-04T10:29:55;11.90;;;2.33;;
37851;SDS011;23691;52.486;4.650;2022-11-04T10:32:32;9.80;;;2.13;;
37851;SDS011;23691;52.486;4.650;2022-11-04T10:37:53;11.15;;;2.20;;
37851;SDS011;23691;52.486;4.650;2022-11-04T10:40:23;9.95;;;1.38;;
37851;SDS011;23691;52.486;4.650;2022-11-04T10:42:52;56.05;;;28.52;;
37851;SDS011;23691;52.486;4.650;2022-11-04T10:45:21;33.63;;;15.38;;
37851;SDS011;23691;52.486;4.650;2022-11-04T10:47:56;19.48;;;8.25;;
37851;SDS011;23691;52.486;4.650;2022-11-04T10:53:08;10.07;;;2.25;;
37851;SDS011;23691;52.486;4.650;2022-11-04T10:55:42;10.63;;;2.15;;
37851;SDS011;23691;52.486;4.650;2022-11-04T10:58:35;8.50;;;2.17;;
37851;SDS011;23691;52.486;4.650;2022-11-04T11:01:20;6.43;;;1.57;;
37851;SDS011;23691;52.486;4.650;2022-11-04T11:03:48;8.20;;;1.60;;
37851;SDS011;23691;52.486;4.650;2022-11-04T11:08:59;15.63;;;6.70;;
37851;SDS011;23691;52.486;4.650;2022-11-04T11:11:41;13.15;;;4.35;;
37851;SDS011;23691;52.486;4.650;2022-11-04T11:14:19;10.25;;;2.38;;
37851;SDS011;23691;52.486;4.650;2022-11-04T11:22:28;8.38;;;1.27;;
37851;SDS011;23691;52.486;4.650;2022-11-04T11:33:15;9.30;;;1.33;;
37851;SDS011;23691;52.486;4.650;2022-11-04T11:35:53;7.60;;;1.10;;
37851;SDS011;23691;52.486;4.650;2022-11-04T11:40:51;8.98;;;1.67;;
37851;SDS011;23691;52.486;4.650;2022-11-04T11:43:27;8.15;;;1.75;;
37851;SDS011;23691;52.486;4.650;2022-11-04T11:45:55;10.80;;;1.80;;
37851;SDS011;23691;52.486;4.650;2022-11-04T11:48:26;12.80;;;1.75;;
37851;SDS011;23691;52.486;4.650;2022-11-04T11:50:54;10.77;;;2.22;;
37851;SDS011;23691;52.486;4.650;2022-11-04T11:53:25;20.35;;;7.10;;
37851;SDS011;23691;52.486;4.650;2022-11-04T11:58:36;13.65;;;2.72;;
37851;SDS011;23691;52.486;4.650;2022-11-04T12:01:12;9.43;;;2.10;;
37851;SDS011;23691;52.486;4.650;2022-11-04T12:03:46;13.48;;;2.47;;
37851;SDS011;23691;52.486;4.650;2022-11-04T12:14:16;7.43;;;1.20;;
37851;SDS011;23691;52.486;4.650;2022-11-04T12:19:54;9.27;;;1.50;;
37851;SDS011;23691;52.486;4.650;2022-11-04T12:27:46;10.50;;;1.73;;
37851;SDS011;23691;52.486;4.650;2022-11-04T12:30:23;8.80;;;1.45;;
37851;SDS011;23691;52.486;4.650;2022-11-04T12:33:02;9.95;;;2.00;;
37851;SDS011;23691;52.486;4.650;2022-11-04T12:35:44;12.02;;;2.20;;
37851;SDS011;23691;52.486;4.650;2022-11-04T12:38:33;9.52;;;1.77;;
37851;SDS011;23691;52.486;4.650;2022-11-04T12:47:52;9.65;;;2.15;;
37851;SDS011;23691;52.486;4.650;2022-11-04T12:58:41;12.95;;;2.03;;
37851;SDS011;23691;52.486;4.650;2022-11-04T13:01:16;15.15;;;2.33;;
37851;SDS011;23691;52.486;4.650;2022-11-04T13:09:16;10.30;;;1.55;;
37851;SDS011;23691;52.486;4.650;2022-11-04T13:11:56;15.65;;;2.88;;
37851;SDS011;23691;52.486;4.650;2022-11-04T13:14:30;12.85;;;2.70;;
37851;SDS011;23691;52.486;4.650;2022-11-04T13:17:05;12.45;;;2.90;;
37851;SDS011;23691;52.486;4.650;2022-11-04T13:19:54;16.27;;;2.85;;
37851;SDS011;23691;52.486;4.650;2022-11-04T13:22:26;14.98;;;2.50;;
37851;SDS011;23691;52.486;4.650;2022-11-04T13:24:59;10.45;;;1.80;;
37851;SDS011;23691;52.486;4.650;2022-11-04T13:27:37;11.20;;;2.50;;
37851;SDS011;23691;52.486;4.650;2022-11-04T13:30:06;17.10;;;2.70;;
37851;SDS011;23691;52.486;4.650;2022-11-04T13:32:34;13.50;;;2.27;;
37851;SDS011;23691;52.486;4.650;2022-11-04T13:35:20;13.20;;;2.88;;
37851;SDS011;23691;52.486;4.650;2022-11-04T13:40:34;24.48;;;6.40;;
37851;SDS011;23691;52.486;4.650;2022-11-04T13:43:26;19.30;;;4.13;;
37851;SDS011;23691;52.486;4.650;2022-11-04T13:46:16;13.82;;;2.67;;
37851;SDS011;23691;52.486;4.650;2022-11-04T13:48:53;15.57;;;3.47;;
37851;SDS011;23691;52.486;4.650;2022-11-04T13:51:41;16.77;;;3.35;;
37851;SDS011;23691;52.486;4.650;2022-11-04T13:54:23;16.25;;;3.25;;
37851;SDS011;23691;52.486;4.650;2022-11-04T14:02:50;13.18;;;2.20;;
37851;SDS011;23691;52.486;4.650;2022-11-04T14:13:50;14.30;;;2.65;;
37851;SDS011;23691;52.486;4.650;2022-11-04T14:16:08;13.55;;;2.05;;
37851;SDS011;23691;52.486;4.650;2022-11-04T14:18:36;44.05;;;19.15;;
37851;SDS011;23691;52.486;4.650;2022-11-04T14:21:07;24.38;;;5.63;;
37851;SDS011;23691;52.486;4.650;2022-11-04T14:23:51;18.30;;;4.38;;
37851;SDS011;23691;52.486;4.650;2022-11-04T14:26:18;15.68;;;3.58;;
37851;SDS011;23691;52.486;4.650;2022-11-04T14:28:48;17.17;;;3.83;;
37851;SDS011;23691;52.486;4.650;2022-11-04T14:31:34;19.60;;;3.63;;
37851;SDS011;23691;52.486;4.650;2022-11-04T14:34:02;21.35;;;3.55;;
37851;SDS011;23691;52.486;4.650;2022-11-04T14:44:07;13.13;;;2.83;;
37851;SDS011;23691;52.486;4.650;2022-11-04T14:46:33;12.88;;;3.58;;
37851;SDS011;23691;52.486;4.650;2022-11-04T14:49:04;16.70;;;3.70;;
37851;SDS011;23691;52.486;4.650;2022-11-04T14:51:31;13.35;;;3.75;;
37851;SDS011;23691;52.486;4.650;2022-11-04T14:59:02;12.77;;;1.92;;
37851;SDS011;23691;52.486;4.650;2022-11-04T15:01:37;12.38;;;1.90;;
37851;SDS011;23691;52.486;4.650;2022-11-04T15:04:24;11.88;;;1.90;;
37851;SDS011;23691;52.486;4.650;2022-11-04T15:07:01;9.98;;;1.58;;
37851;SDS011;23691;52.486;4.650;2022-11-04T15:09:29;12.85;;;1.83;;
37851;SDS011;23691;52.486;4.650;2022-11-04T15:14:51;7.75;;;1.48;;
37851;SDS011;23691;52.486;4.650;2022-11-04T15:17:17;12.00;;;1.42;;
37851;SDS011;23691;52.486;4.650;2022-11-04T15:19:46;8.10;;;1.15;;
37851;SDS011;23691;52.486;4.650;2022-11-04T15:22:15;10.40;;;1.38;;
37851;SDS011;23691;52.486;4.650;2022-11-04T15:24:41;8.80;;;1.17;;
37851;SDS011;23691;52.486;4.650;2022-11-04T15:27:12;11.20;;;1.30;;
37851;SDS011;23691;52.486;4.650;2022-11-04T15:29:40;13.30;;;1.40;;
37851;SDS011;23691;52.486;4.650;2022-11-04T15:32:17;9.00;;;1.20;;
37851;SDS011;23691;52.486;4.650;2022-11-04T15:34:43;10.68;;;1.30;;
37851;SDS011;23691;52.486;4.650;2022-11-04T15:37:09;10.32;;;1.40;;
37851;SDS011;23691;52.486;4.650;2022-11-04T15:39:40;7.30;;;1.10;;
37851;SDS011;23691;52.486;4.650;2022-11-04T15:42:19;11.25;;;1.55;;
37851;SDS011;23691;52.486;4.650;2022-11-04T15:53:59;14.38;;;2.38;;
37851;SDS011;23691;52.486;4.650;2022-11-04T15:56:27;11.98;;;1.75;;
37851;SDS011;23691;52.486;4.650;2022-11-04T15:58:56;13.18;;;2.15;;
37851;SDS011;23691;52.486;4.650;2022-11-04T16:01:23;12.20;;;1.63;;
37851;SDS011;23691;52.486;4.650;2022-11-04T16:03:51;12.68;;;1.70;;
37851;SDS011;23691;52.486;4.650;2022-11-04T16:09:27;12.32;;;2.30;;
37851;SDS011;23691;52.486;4.650;2022-11-04T16:12:03;12.40;;;2.08;;
37851;SDS011;23691;52.486;4.650;2022-11-04T16:14:30;9.43;;;1.58;;
37851;SDS011;23691;52.486;4.650;2022-11-04T16:16:55;10.27;;;1.83;;
37851;SDS011;23691;52.486;4.650;2022-11-04T16:19:23;17.05;;;2.40;;
37851;SDS011;23691;52.486;4.650;2022-11-04T16:22:04;10.73;;;1.70;;
37851;SDS011;23691;52.486;4.650;2022-11-04T16:24:34;10.10;;;1.88;;
37851;SDS011;23691;52.486;4.650;2022-11-04T16:27:02;13.52;;;2.10;;
37851;SDS011;23691;52.486;4.650;2022-11-04T16:29:32;16.83;;;4.50;;
37851;SDS011;23691;52.486;4.650;2022-11-04T16:34:39;18.13;;;4.90;;
37851;SDS011;23691;52.486;4.650;2022-11-04T16:37:05;11.85;;;2.65;;
37851;SDS011;23691;52.486;4.650;2022-11-04T16:39:30;14.57;;;2.10;;
37851;SDS011;23691;52.486;4.650;2022-11-04T16:41:56;12.80;;;2.30;;
37851;SDS011;23691;52.486;4.650;2022-11-04T16:44:22;11.30;;;2.13;;
37851;SDS011;23691;52.486;4.650;2022-11-04T16:46:49;11.18;;;2.47;;
37851;SDS011;23691;52.486;4.650;2022-11-04T16:49:16;11.77;;;2.92;;
37851;SDS011;23691;52.486;4.650;2022-11-04T16:51:43;15.65;;;3.28;;
37851;SDS011;23691;52.486;4.650;2022-11-04T16:54:09;14.23;;;3.20;;
37851;SDS011;23691;52.486;4.650;2022-11-04T16:56:35;13.55;;;3.97;;
37851;SDS011;23691;52.486;4.650;2022-11-04T16:59:01;21.40;;;7.38;;
37851;SDS011;23691;52.486;4.650;2022-11-04T17:01:26;18.38;;;6.93;;
37851;SDS011;23691;52.486;4.650;2022-11-04T17:03:51;20.83;;;9.32;;
37851;SDS011;23691;52.486;4.650;2022-11-04T17:06:17;18.75;;;8.23;;
37851;SDS011;23691;52.486;4.650;2022-11-04T17:08:45;22.70;;;10.68;;
37851;SDS011;23691;52.486;4.650;2022-11-04T17:11:10;22.17;;;10.35;;
37851;SDS011;23691;52.486;4.650;2022-11-04T17:13:37;23.55;;;9.80;;
37851;SDS011;23691;52.486;4.650;2022-11-04T17:16:03;24.38;;;10.30;;
37851;SDS011;23691;52.486;4.650;2022-11-04T17:18:30;27.97;;;7.83;;
37851;SDS011;23691;52.486;4.650;2022-11-04T17:20:57;18.50;;;4.88;;
37851;SDS011;23691;52.486;4.650;2022-11-04T17:23:23;23.13;;;8.18;;
37851;SDS011;23691;52.486;4.650;2022-11-04T17:25:49;27.15;;;7.05;;
37851;SDS011;23691;52.486;4.650;2022-11-04T17:28:15;23.42;;;6.40;;
37851;SDS011;23691;52.486;4.650;2022-11-04T17:30:41;22.02;;;6.13;;
37851;SDS011;23691;52.486;4.650;2022-11-04T17:33:13;19.20;;;6.68;;
37851;SDS011;23691;52.486;4.650;2022-11-04T17:35:40;22.38;;;7.90;;
37851;SDS011;23691;52.486;4.650;2022-11-04T17:38:11;23.90;;;6.80;;
37851;SDS011;23691;52.486;4.650;2022-11-04T17:40:38;37.08;;;15.77;;
37851;SDS011;23691;52.486;4.650;2022-11-04T17:43:22;30.92;;;12.70;;
37851;SDS011;23691;52.486;4.650;2022-11-04T17:46:06;22.65;;;8.07;;
37851;SDS011;23691;52.486;4.650;2022-11-04T17:48:50;13.32;;;3.80;;
37851;SDS011;23691;52.486;4.650;2022-11-04T17:51:15;23.08;;;6.53;;
37851;SDS011;23691;52.486;4.650;2022-11-04T17:53:41;25.88;;;9.32;;
37851;SDS011;23691;52.486;4.650;2022-11-04T17:56:12;27.63;;;9.48;;
37851;SDS011;23691;52.486;4.650;2022-11-04T17:58:41;33.05;;;10.73;;